sensor_id;sensor_type;location;lat;lon;timestamp;P1;durP1;ratioP1;P2;durP2;ratioP2
62844;SDS011;48929;47.910;20.390;2022-12-18T00:01:23;55.53;;;19.33;;
62844;SDS011;48929;47.910;20.390;2022-12-18T00:03:52;47.95;;;18.77;;
62844;SDS011;48929;47.910;20.390;2022-12-18T00:06:22;49.78;;;18.80;;
62844;SDS011;48929;47.910;20.390;2022-12-18T00:08:51;50.20;;;18.33;;
62844;SDS011;48929;47.910;20.390;2022-12-18T00:11:23;52.55;;;18.98;;
62844;SDS011;48929;47.910;20.390;2022-12-18T00:13:54;44.92;;;17.80;;
62844;SDS011;48929;47.910;20.390;2022-12-18T00:16:23;52.30;;;18.42;;
62844;SDS011;48929;47.910;20.390;2022-12-18T00:18:53;50.65;;;18.67;;
62844;SDS011;48929;47.910;20.390;2022-12-18T00:21:21;53.92;;;20.73;;
62844;SDS011;48929;47.910;20.390;2022-12-18T00:23:49;49.65;;;19.10;;
62844;SDS011;48929;47.910;20.390;2022-12-18T00:26:19;53.92;;;19.88;;
62844;SDS011;48929;47.910;20.390;2022-12-18T00:28:48;46.13;;;18.60;;
62844;SDS011;48929;47.910;20.390;2022-12-18T00:31:18;54.78;;;19.77;;
62844;SDS011;48929;47.910;20.390;2022-12-18T00:33:47;51.38;;;19.58;;
62844;SDS011;48929;47.910;20.390;2022-12-18T00:36:21;56.17;;;20.50;;
62844;SDS011;48929;47.910;20.390;2022-12-18T00:38:49;54.30;;;20.42;;
62844;SDS011;48929;47.910;20.390;2022-12-18T00:41:18;51.70;;;19.95;;
62844;SDS011;48929;47.910;20.390;2022-12-18T00:44:00;50.10;;;19.73;;
62844;SDS011;48929;47.910;20.390;2022-12-18T00:46:30;52.80;;;20.13;;
62844;SDS011;48929;47.910;20.390;2022-12-18T00:48:58;49.80;;;19.08;;
62844;SDS011;48929;47.910;20.390;2022-12-18T00:51:26;53.92;;;21.17;;
62844;SDS011;48929;47.910;20.390;2022-12-18T00:53:55;54.83;;;21.35;;
62844;SDS011;48929;47.910;20.390;2022-12-18T00:56:23;47.72;;;20.27;;
62844;SDS011;48929;47.910;20.390;2022-12-18T00:58:54;49.00;;;20.25;;
62844;SDS011;48929;47.910;20.390;2022-12-18T01:01:22;52.85;;;19.48;;
62844;SDS011;48929;47.910;20.390;2022-12-18T01:03:52;49.42;;;19.85;;
62844;SDS011;48929;47.910;20.390;2022-12-18T01:06:21;55.78;;;20.20;;
62844;SDS011;48929;47.910;20.390;2022-12-18T01:08:49;49.88;;;19.48;;
62844;SDS011;48929;47.910;20.390;2022-12-18T01:11:18;46.47;;;17.33;;
62844;SDS011;48929;47.910;20.390;2022-12-18T01:13:46;45.05;;;18.33;;
62844;SDS011;48929;47.910;20.390;2022-12-18T01:16:16;44.13;;;18.45;;
62844;SDS011;48929;47.910;20.390;2022-12-18T01:18:45;41.55;;;17.73;;
62844;SDS011;48929;47.910;20.390;2022-12-18T01:23:59;44.78;;;16.83;;
62844;SDS011;48929;47.910;20.390;2022-12-18T01:26:28;41.05;;;15.63;;
62844;SDS011;48929;47.910;20.390;2022-12-18T01:28:57;41.20;;;17.48;;
62844;SDS011;48929;47.910;20.390;2022-12-18T01:31:26;40.35;;;17.55;;
62844;SDS011;48929;47.910;20.390;2022-12-18T01:33:55;43.80;;;17.52;;
62844;SDS011;48929;47.910;20.390;2022-12-18T01:36:24;45.33;;;17.80;;
62844;SDS011;48929;47.910;20.390;2022-12-18T01:38:53;40.58;;;15.30;;
62844;SDS011;48929;47.910;20.390;2022-12-18T01:41:24;47.83;;;17.15;;
62844;SDS011;48929;47.910;20.390;2022-12-18T01:43:57;37.60;;;15.65;;
62844;SDS011;48929;47.910;20.390;2022-12-18T01:46:26;40.95;;;15.50;;
62844;SDS011;48929;47.910;20.390;2022-12-18T01:48:56;38.50;;;15.93;;
62844;SDS011;48929;47.910;20.390;2022-12-18T01:51:26;50.17;;;17.98;;
62844;SDS011;48929;47.910;20.390;2022-12-18T01:53:55;45.95;;;16.58;;
62844;SDS011;48929;47.910;20.390;2022-12-18T01:56:25;45.80;;;17.73;;
62844;SDS011;48929;47.910;20.390;2022-12-18T01:58:55;37.28;;;15.68;;
62844;SDS011;48929;47.910;20.390;2022-12-18T02:01:26;40.97;;;15.68;;
62844;SDS011;48929;47.910;20.390;2022-12-18T02:03:54;39.95;;;17.05;;
62844;SDS011;48929;47.910;20.390;2022-12-18T02:06:23;41.97;;;15.90;;
62844;SDS011;48929;47.910;20.390;2022-12-18T02:08:58;40.10;;;16.00;;
62844;SDS011;48929;47.910;20.390;2022-12-18T02:11:37;39.83;;;15.40;;
62844;SDS011;48929;47.910;20.390;2022-12-18T02:14:10;37.42;;;15.48;;
62844;SDS011;48929;47.910;20.390;2022-12-18T02:16:43;41.75;;;16.05;;
62844;SDS011;48929;47.910;20.390;2022-12-18T02:19:16;43.42;;;15.93;;
62844;SDS011;48929;47.910;20.390;2022-12-18T02:21:49;42.38;;;16.40;;
62844;SDS011;48929;47.910;20.390;2022-12-18T02:24:27;41.05;;;15.93;;
62844;SDS011;48929;47.910;20.390;2022-12-18T02:26:59;38.42;;;15.50;;
62844;SDS011;48929;47.910;20.390;2022-12-18T02:29:29;40.70;;;15.93;;
62844;SDS011;48929;47.910;20.390;2022-12-18T02:31:59;40.70;;;16.48;;
62844;SDS011;48929;47.910;20.390;2022-12-18T02:34:29;39.08;;;15.90;;
62844;SDS011;48929;47.910;20.390;2022-12-18T02:36:58;40.63;;;16.48;;
62844;SDS011;48929;47.910;20.390;2022-12-18T02:39:28;41.13;;;16.58;;
62844;SDS011;48929;47.910;20.390;2022-12-18T02:41:58;41.55;;;15.88;;
62844;SDS011;48929;47.910;20.390;2022-12-18T02:44:29;42.50;;;16.65;;
62844;SDS011;48929;47.910;20.390;2022-12-18T02:46:57;46.63;;;17.10;;
62844;SDS011;48929;47.910;20.390;2022-12-18T02:49:28;40.95;;;16.13;;
62844;SDS011;48929;47.910;20.390;2022-12-18T02:52:01;40.55;;;16.77;;
62844;SDS011;48929;47.910;20.390;2022-12-18T02:54:35;47.50;;;16.65;;
62844;SDS011;48929;47.910;20.390;2022-12-18T02:57:09;48.95;;;18.52;;
62844;SDS011;48929;47.910;20.390;2022-12-18T02:59:42;50.88;;;18.67;;
62844;SDS011;48929;47.910;20.390;2022-12-18T03:02:16;46.13;;;17.23;;
62844;SDS011;48929;47.910;20.390;2022-12-18T03:04:47;45.05;;;17.15;;
62844;SDS011;48929;47.910;20.390;2022-12-18T03:07:18;43.78;;;16.88;;
62844;SDS011;48929;47.910;20.390;2022-12-18T03:09:48;45.63;;;17.35;;
62844;SDS011;48929;47.910;20.390;2022-12-18T03:12:22;45.65;;;17.50;;
62844;SDS011;48929;47.910;20.390;2022-12-18T03:14:53;38.53;;;16.92;;
62844;SDS011;48929;47.910;20.390;2022-12-18T03:17:25;43.22;;;17.55;;
62844;SDS011;48929;47.910;20.390;2022-12-18T03:19:56;45.63;;;17.25;;
62844;SDS011;48929;47.910;20.390;2022-12-18T03:22:24;43.92;;;18.88;;
62844;SDS011;48929;47.910;20.390;2022-12-18T03:24:54;39.80;;;16.50;;
62844;SDS011;48929;47.910;20.390;2022-12-18T03:27:25;47.80;;;18.70;;
62844;SDS011;48929;47.910;20.390;2022-12-18T03:29:56;44.53;;;17.75;;
62844;SDS011;48929;47.910;20.390;2022-12-18T03:32:30;46.70;;;18.38;;
62844;SDS011;48929;47.910;20.390;2022-12-18T03:35:02;44.53;;;17.15;;
62844;SDS011;48929;47.910;20.390;2022-12-18T03:37:31;51.42;;;18.25;;
62844;SDS011;48929;47.910;20.390;2022-12-18T03:40:00;44.75;;;18.20;;
62844;SDS011;48929;47.910;20.390;2022-12-18T03:42:31;44.08;;;18.23;;
62844;SDS011;48929;47.910;20.390;2022-12-18T03:45:02;46.58;;;17.98;;
62844;SDS011;48929;47.910;20.390;2022-12-18T03:47:33;45.78;;;18.17;;
62844;SDS011;48929;47.910;20.390;2022-12-18T03:50:06;46.92;;;17.70;;
62844;SDS011;48929;47.910;20.390;2022-12-18T03:52:40;42.40;;;18.40;;
62844;SDS011;48929;47.910;20.390;2022-12-18T03:55:09;39.08;;;16.63;;
62844;SDS011;48929;47.910;20.390;2022-12-18T03:57:39;45.15;;;18.42;;
62844;SDS011;48929;47.910;20.390;2022-12-18T04:00:11;44.75;;;17.88;;
62844;SDS011;48929;47.910;20.390;2022-12-18T04:02:40;49.50;;;18.67;;
62844;SDS011;48929;47.910;20.390;2022-12-18T04:05:11;45.22;;;17.08;;
62844;SDS011;48929;47.910;20.390;2022-12-18T04:07:40;49.90;;;19.33;;
62844;SDS011;48929;47.910;20.390;2022-12-18T04:10:09;49.42;;;18.95;;
62844;SDS011;48929;47.910;20.390;2022-12-18T04:12:40;47.05;;;18.00;;
62844;SDS011;48929;47.910;20.390;2022-12-18T04:15:08;43.35;;;17.40;;
62844;SDS011;48929;47.910;20.390;2022-12-18T04:17:37;48.03;;;17.98;;
62844;SDS011;48929;47.910;20.390;2022-12-18T04:20:06;38.72;;;16.63;;
62844;SDS011;48929;47.910;20.390;2022-12-18T04:22:35;44.08;;;17.83;;
62844;SDS011;48929;47.910;20.390;2022-12-18T04:25:03;45.90;;;17.58;;
62844;SDS011;48929;47.910;20.390;2022-12-18T04:27:31;47.83;;;18.60;;
62844;SDS011;48929;47.910;20.390;2022-12-18T04:30:01;47.78;;;18.52;;
62844;SDS011;48929;47.910;20.390;2022-12-18T04:32:30;50.97;;;19.95;;
62844;SDS011;48929;47.910;20.390;2022-12-18T04:34:58;50.70;;;19.67;;
62844;SDS011;48929;47.910;20.390;2022-12-18T04:37:26;47.97;;;19.25;;
62844;SDS011;48929;47.910;20.390;2022-12-18T04:39:55;47.35;;;20.33;;
62844;SDS011;48929;47.910;20.390;2022-12-18T04:42:24;51.58;;;19.38;;
62844;SDS011;48929;47.910;20.390;2022-12-18T04:44:54;48.83;;;19.23;;
62844;SDS011;48929;47.910;20.390;2022-12-18T04:47:24;47.25;;;19.52;;
62844;SDS011;48929;47.910;20.390;2022-12-18T04:49:52;46.17;;;18.42;;
62844;SDS011;48929;47.910;20.390;2022-12-18T04:52:20;46.28;;;18.55;;
62844;SDS011;48929;47.910;20.390;2022-12-18T04:54:52;45.38;;;18.00;;
62844;SDS011;48929;47.910;20.390;2022-12-18T04:57:20;49.72;;;19.35;;
62844;SDS011;48929;47.910;20.390;2022-12-18T04:59:48;48.90;;;18.00;;
62844;SDS011;48929;47.910;20.390;2022-12-18T05:02:17;49.95;;;19.45;;
62844;SDS011;48929;47.910;20.390;2022-12-18T05:04:47;51.00;;;18.67;;
62844;SDS011;48929;47.910;20.390;2022-12-18T05:07:15;40.78;;;16.80;;
62844;SDS011;48929;47.910;20.390;2022-12-18T05:09:43;52.83;;;18.23;;
62844;SDS011;48929;47.910;20.390;2022-12-18T05:12:12;39.35;;;17.63;;
62844;SDS011;48929;47.910;20.390;2022-12-18T05:14:42;41.38;;;17.10;;
62844;SDS011;48929;47.910;20.390;2022-12-18T05:17:10;39.08;;;15.38;;
62844;SDS011;48929;47.910;20.390;2022-12-18T05:19:39;54.70;;;18.58;;
62844;SDS011;48929;47.910;20.390;2022-12-18T05:22:09;56.78;;;18.77;;
62844;SDS011;48929;47.910;20.390;2022-12-18T05:24:37;57.67;;;18.83;;
62844;SDS011;48929;47.910;20.390;2022-12-18T05:27:06;51.70;;;18.10;;
62844;SDS011;48929;47.910;20.390;2022-12-18T05:29:35;60.55;;;20.52;;
62844;SDS011;48929;47.910;20.390;2022-12-18T05:32:04;49.20;;;17.48;;
62844;SDS011;48929;47.910;20.390;2022-12-18T05:34:32;51.75;;;19.27;;
62844;SDS011;48929;47.910;20.390;2022-12-18T05:37:01;52.20;;;18.85;;
62844;SDS011;48929;47.910;20.390;2022-12-18T05:39:31;52.55;;;19.85;;
62844;SDS011;48929;47.910;20.390;2022-12-18T05:41:59;56.42;;;20.75;;
62844;SDS011;48929;47.910;20.390;2022-12-18T05:44:27;46.45;;;18.95;;
62844;SDS011;48929;47.910;20.390;2022-12-18T05:46:56;52.30;;;18.63;;
62844;SDS011;48929;47.910;20.390;2022-12-18T05:49:24;43.08;;;17.35;;
62844;SDS011;48929;47.910;20.390;2022-12-18T05:51:53;61.08;;;18.92;;
62844;SDS011;48929;47.910;20.390;2022-12-18T05:54:21;56.85;;;22.20;;
62844;SDS011;48929;47.910;20.390;2022-12-18T05:56:52;53.40;;;19.02;;
62844;SDS011;48929;47.910;20.390;2022-12-18T05:59:20;71.50;;;20.63;;
62844;SDS011;48929;47.910;20.390;2022-12-18T06:01:49;66.85;;;21.70;;
62844;SDS011;48929;47.910;20.390;2022-12-18T06:04:17;60.70;;;23.45;;
62844;SDS011;48929;47.910;20.390;2022-12-18T06:06:46;66.13;;;24.52;;
62844;SDS011;48929;47.910;20.390;2022-12-18T06:09:14;50.92;;;18.27;;
62844;SDS011;48929;47.910;20.390;2022-12-18T06:11:42;65.85;;;20.13;;
62844;SDS011;48929;47.910;20.390;2022-12-18T06:14:12;71.35;;;20.77;;
62844;SDS011;48929;47.910;20.390;2022-12-18T06:16:40;63.40;;;18.73;;
62844;SDS011;48929;47.910;20.390;2022-12-18T06:19:13;66.93;;;18.77;;
62844;SDS011;48929;47.910;20.390;2022-12-18T06:21:42;66.78;;;21.60;;
62844;SDS011;48929;47.910;20.390;2022-12-18T06:24:10;61.33;;;19.80;;
62844;SDS011;48929;47.910;20.390;2022-12-18T06:26:39;73.35;;;24.77;;
62844;SDS011;48929;47.910;20.390;2022-12-18T06:29:07;71.25;;;24.52;;
62844;SDS011;48929;47.910;20.390;2022-12-18T06:31:37;65.60;;;22.25;;
62844;SDS011;48929;47.910;20.390;2022-12-18T06:34:06;63.47;;;22.73;;
62844;SDS011;48929;47.910;20.390;2022-12-18T06:36:34;71.22;;;22.60;;
62844;SDS011;48929;47.910;20.390;2022-12-18T06:39:03;69.93;;;23.48;;
62844;SDS011;48929;47.910;20.390;2022-12-18T06:41:32;75.78;;;25.05;;
62844;SDS011;48929;47.910;20.390;2022-12-18T06:44:01;74.68;;;25.67;;
62844;SDS011;48929;47.910;20.390;2022-12-18T06:46:29;76.53;;;27.95;;
62844;SDS011;48929;47.910;20.390;2022-12-18T06:49:00;76.60;;;27.10;;
62844;SDS011;48929;47.910;20.390;2022-12-18T06:51:28;76.22;;;28.05;;
62844;SDS011;48929;47.910;20.390;2022-12-18T06:53:57;75.53;;;28.98;;
62844;SDS011;48929;47.910;20.390;2022-12-18T06:56:25;67.93;;;26.20;;
62844;SDS011;48929;47.910;20.390;2022-12-18T06:58:54;76.78;;;27.33;;
62844;SDS011;48929;47.910;20.390;2022-12-18T07:01:23;76.03;;;26.60;;
62844;SDS011;48929;47.910;20.390;2022-12-18T07:03:52;74.00;;;26.35;;
62844;SDS011;48929;47.910;20.390;2022-12-18T07:06:23;65.80;;;25.10;;
62844;SDS011;48929;47.910;20.390;2022-12-18T07:08:52;69.72;;;25.13;;
62844;SDS011;48929;47.910;20.390;2022-12-18T07:11:21;67.50;;;26.77;;
62844;SDS011;48929;47.910;20.390;2022-12-18T07:13:54;68.68;;;26.95;;
62844;SDS011;48929;47.910;20.390;2022-12-18T07:16:25;74.85;;;26.75;;
62844;SDS011;48929;47.910;20.390;2022-12-18T07:18:55;79.85;;;28.25;;
62844;SDS011;48929;47.910;20.390;2022-12-18T07:21:25;68.18;;;24.55;;
62844;SDS011;48929;47.910;20.390;2022-12-18T07:23:53;70.30;;;27.40;;
62844;SDS011;48929;47.910;20.390;2022-12-18T07:26:22;70.10;;;25.98;;
62844;SDS011;48929;47.910;20.390;2022-12-18T07:28:50;73.65;;;25.02;;
62844;SDS011;48929;47.910;20.390;2022-12-18T07:31:22;64.57;;;24.27;;
62844;SDS011;48929;47.910;20.390;2022-12-18T07:33:51;67.03;;;23.73;;
62844;SDS011;48929;47.910;20.390;2022-12-18T07:36:21;65.57;;;22.70;;
62844;SDS011;48929;47.910;20.390;2022-12-18T07:38:51;60.05;;;23.58;;
62844;SDS011;48929;47.910;20.390;2022-12-18T07:41:20;67.97;;;24.33;;
62844;SDS011;48929;47.910;20.390;2022-12-18T07:43:48;72.70;;;24.33;;
62844;SDS011;48929;47.910;20.390;2022-12-18T07:46:18;69.90;;;24.42;;
62844;SDS011;48929;47.910;20.390;2022-12-18T07:48:50;70.07;;;25.17;;
62844;SDS011;48929;47.910;20.390;2022-12-18T07:51:22;64.32;;;25.00;;
62844;SDS011;48929;47.910;20.390;2022-12-18T07:53:51;74.63;;;24.05;;
62844;SDS011;48929;47.910;20.390;2022-12-18T07:56:22;69.45;;;24.25;;
62844;SDS011;48929;47.910;20.390;2022-12-18T07:58:58;64.00;;;24.40;;
62844;SDS011;48929;47.910;20.390;2022-12-18T08:01:32;70.95;;;24.10;;
62844;SDS011;48929;47.910;20.390;2022-12-18T08:04:09;75.88;;;26.35;;
62844;SDS011;48929;47.910;20.390;2022-12-18T08:06:52;63.35;;;23.80;;
62844;SDS011;48929;47.910;20.390;2022-12-18T08:09:30;73.30;;;23.92;;
62844;SDS011;48929;47.910;20.390;2022-12-18T08:12:01;67.57;;;23.70;;
62844;SDS011;48929;47.910;20.390;2022-12-18T08:14:29;71.97;;;25.33;;
62844;SDS011;48929;47.910;20.390;2022-12-18T08:16:57;70.10;;;24.63;;
62844;SDS011;48929;47.910;20.390;2022-12-18T08:19:31;67.00;;;21.15;;
62844;SDS011;48929;47.910;20.390;2022-12-18T08:21:59;60.88;;;21.73;;
62844;SDS011;48929;47.910;20.390;2022-12-18T08:24:30;65.05;;;21.02;;
62844;SDS011;48929;47.910;20.390;2022-12-18T08:26:59;77.75;;;21.20;;
62844;SDS011;48929;47.910;20.390;2022-12-18T08:29:48;61.17;;;19.55;;
62844;SDS011;48929;47.910;20.390;2022-12-18T08:32:17;63.38;;;20.30;;
62844;SDS011;48929;47.910;20.390;2022-12-18T08:34:45;72.78;;;21.52;;
62844;SDS011;48929;47.910;20.390;2022-12-18T08:37:14;66.15;;;23.77;;
62844;SDS011;48929;47.910;20.390;2022-12-18T08:39:44;56.03;;;20.33;;
62844;SDS011;48929;47.910;20.390;2022-12-18T08:42:12;62.83;;;21.75;;
62844;SDS011;48929;47.910;20.390;2022-12-18T08:44:58;60.80;;;20.87;;
62844;SDS011;48929;47.910;20.390;2022-12-18T08:47:28;53.42;;;19.60;;
62844;SDS011;48929;47.910;20.390;2022-12-18T08:49:57;55.97;;;20.45;;
62844;SDS011;48929;47.910;20.390;2022-12-18T08:52:25;55.65;;;19.20;;
62844;SDS011;48929;47.910;20.390;2022-12-18T08:54:57;52.58;;;18.92;;
62844;SDS011;48929;47.910;20.390;2022-12-18T08:57:26;58.90;;;20.70;;
62844;SDS011;48929;47.910;20.390;2022-12-18T08:59:55;60.05;;;19.88;;
62844;SDS011;48929;47.910;20.390;2022-12-18T09:02:23;61.30;;;20.58;;
62844;SDS011;48929;47.910;20.390;2022-12-18T09:04:52;61.53;;;21.58;;
62844;SDS011;48929;47.910;20.390;2022-12-18T09:07:23;68.43;;;21.55;;
62844;SDS011;48929;47.910;20.390;2022-12-18T09:10:01;56.13;;;20.58;;
62844;SDS011;48929;47.910;20.390;2022-12-18T09:12:30;54.25;;;19.50;;
62844;SDS011;48929;47.910;20.390;2022-12-18T09:15:02;52.05;;;20.45;;
62844;SDS011;48929;47.910;20.390;2022-12-18T09:17:30;53.78;;;18.85;;
62844;SDS011;48929;47.910;20.390;2022-12-18T09:20:02;50.30;;;18.92;;
62844;SDS011;48929;47.910;20.390;2022-12-18T09:22:31;44.58;;;18.33;;
62844;SDS011;48929;47.910;20.390;2022-12-18T09:25:01;47.42;;;19.15;;
62844;SDS011;48929;47.910;20.390;2022-12-18T09:27:29;54.97;;;19.75;;
62844;SDS011;48929;47.910;20.390;2022-12-18T09:29:58;50.00;;;18.90;;
62844;SDS011;48929;47.910;20.390;2022-12-18T09:32:26;48.80;;;18.00;;
62844;SDS011;48929;47.910;20.390;2022-12-18T09:34:55;41.65;;;17.30;;
62844;SDS011;48929;47.910;20.390;2022-12-18T09:37:23;45.42;;;17.42;;
62844;SDS011;48929;47.910;20.390;2022-12-18T09:39:53;43.42;;;17.95;;
62844;SDS011;48929;47.910;20.390;2022-12-18T09:42:23;49.28;;;18.60;;
62844;SDS011;48929;47.910;20.390;2022-12-18T09:44:51;43.00;;;17.65;;
62844;SDS011;48929;47.910;20.390;2022-12-18T09:47:22;39.58;;;18.67;;
62844;SDS011;48929;47.910;20.390;2022-12-18T09:49:53;43.00;;;17.55;;
62844;SDS011;48929;47.910;20.390;2022-12-18T09:52:25;46.58;;;18.02;;
62844;SDS011;48929;47.910;20.390;2022-12-18T09:54:56;44.72;;;18.77;;
62844;SDS011;48929;47.910;20.390;2022-12-18T09:57:31;47.00;;;18.67;;
62844;SDS011;48929;47.910;20.390;2022-12-18T10:00:03;44.20;;;18.83;;
62844;SDS011;48929;47.910;20.390;2022-12-18T10:02:36;42.38;;;18.30;;
62844;SDS011;48929;47.910;20.390;2022-12-18T10:05:07;40.05;;;16.73;;
62844;SDS011;48929;47.910;20.390;2022-12-18T10:07:42;43.58;;;17.52;;
62844;SDS011;48929;47.910;20.390;2022-12-18T10:10:14;40.08;;;18.40;;
62844;SDS011;48929;47.910;20.390;2022-12-18T10:12:47;45.45;;;17.50;;
62844;SDS011;48929;47.910;20.390;2022-12-18T10:15:24;40.53;;;18.25;;
62844;SDS011;48929;47.910;20.390;2022-12-18T10:17:58;44.22;;;18.38;;
62844;SDS011;48929;47.910;20.390;2022-12-18T10:20:32;41.90;;;18.55;;
62844;SDS011;48929;47.910;20.390;2022-12-18T10:23:03;40.67;;;18.63;;
62844;SDS011;48929;47.910;20.390;2022-12-18T10:25:34;38.83;;;18.58;;
62844;SDS011;48929;47.910;20.390;2022-12-18T10:28:10;41.40;;;18.02;;
62844;SDS011;48929;47.910;20.390;2022-12-18T10:30:39;42.97;;;17.85;;
62844;SDS011;48929;47.910;20.390;2022-12-18T10:33:09;38.88;;;17.23;;
62844;SDS011;48929;47.910;20.390;2022-12-18T10:35:38;43.85;;;17.15;;
62844;SDS011;48929;47.910;20.390;2022-12-18T10:38:20;45.53;;;19.40;;
62844;SDS011;48929;47.910;20.390;2022-12-18T10:40:51;45.92;;;19.67;;
62844;SDS011;48929;47.910;20.390;2022-12-18T10:43:22;47.50;;;19.92;;
62844;SDS011;48929;47.910;20.390;2022-12-18T10:51:06;49.72;;;20.63;;
62844;SDS011;48929;47.910;20.390;2022-12-18T10:53:39;51.83;;;20.10;;
62844;SDS011;48929;47.910;20.390;2022-12-18T10:56:08;46.65;;;20.40;;
62844;SDS011;48929;47.910;20.390;2022-12-18T10:58:38;45.40;;;18.08;;
62844;SDS011;48929;47.910;20.390;2022-12-18T11:01:08;50.28;;;19.85;;
62844;SDS011;48929;47.910;20.390;2022-12-18T11:03:39;45.90;;;19.98;;
62844;SDS011;48929;47.910;20.390;2022-12-18T11:06:09;45.40;;;19.33;;
62844;SDS011;48929;47.910;20.390;2022-12-18T11:08:38;46.70;;;20.60;;
62844;SDS011;48929;47.910;20.390;2022-12-18T11:11:09;47.78;;;19.83;;
62844;SDS011;48929;47.910;20.390;2022-12-18T11:13:44;45.00;;;19.48;;
62844;SDS011;48929;47.910;20.390;2022-12-18T11:16:18;54.28;;;20.30;;
62844;SDS011;48929;47.910;20.390;2022-12-18T11:18:46;48.67;;;20.63;;
62844;SDS011;48929;47.910;20.390;2022-12-18T11:21:15;44.28;;;19.98;;
62844;SDS011;48929;47.910;20.390;2022-12-18T11:23:46;44.75;;;19.45;;
62844;SDS011;48929;47.910;20.390;2022-12-18T11:26:15;47.50;;;18.63;;
62844;SDS011;48929;47.910;20.390;2022-12-18T11:28:46;47.88;;;19.52;;
62844;SDS011;48929;47.910;20.390;2022-12-18T11:31:25;44.65;;;19.27;;
62844;SDS011;48929;47.910;20.390;2022-12-18T11:33:56;45.92;;;18.67;;
62844;SDS011;48929;47.910;20.390;2022-12-18T11:36:46;44.80;;;18.88;;
62844;SDS011;48929;47.910;20.390;2022-12-18T11:39:16;57.40;;;20.48;;
62844;SDS011;48929;47.910;20.390;2022-12-18T11:41:49;47.78;;;19.50;;
62844;SDS011;48929;47.910;20.390;2022-12-18T11:44:40;49.10;;;20.75;;
62844;SDS011;48929;47.910;20.390;2022-12-18T11:47:12;51.30;;;19.67;;
62844;SDS011;48929;47.910;20.390;2022-12-18T11:49:46;49.17;;;20.15;;
62844;SDS011;48929;47.910;20.390;2022-12-18T11:52:16;50.63;;;19.98;;
62844;SDS011;48929;47.910;20.390;2022-12-18T11:54:46;50.03;;;20.25;;
62844;SDS011;48929;47.910;20.390;2022-12-18T11:57:19;54.90;;;20.70;;
62844;SDS011;48929;47.910;20.390;2022-12-18T11:59:54;51.80;;;21.88;;
62844;SDS011;48929;47.910;20.390;2022-12-18T12:02:29;51.47;;;21.58;;
62844;SDS011;48929;47.910;20.390;2022-12-18T12:05:02;56.50;;;21.90;;
62844;SDS011;48929;47.910;20.390;2022-12-18T12:07:35;52.50;;;20.88;;
62844;SDS011;48929;47.910;20.390;2022-12-18T12:10:12;59.08;;;23.33;;
62844;SDS011;48929;47.910;20.390;2022-12-18T12:12:46;52.55;;;21.75;;
62844;SDS011;48929;47.910;20.390;2022-12-18T12:15:25;51.88;;;20.98;;
62844;SDS011;48929;47.910;20.390;2022-12-18T12:17:57;52.95;;;21.60;;
62844;SDS011;48929;47.910;20.390;2022-12-18T12:20:36;50.40;;;21.52;;
62844;SDS011;48929;47.910;20.390;2022-12-18T12:23:12;50.78;;;21.42;;
62844;SDS011;48929;47.910;20.390;2022-12-18T12:25:44;47.70;;;21.20;;
62844;SDS011;48929;47.910;20.390;2022-12-18T12:28:17;56.00;;;21.63;;
62844;SDS011;48929;47.910;20.390;2022-12-18T12:30:54;55.20;;;21.50;;
62844;SDS011;48929;47.910;20.390;2022-12-18T12:33:31;49.33;;;20.50;;
62844;SDS011;48929;47.910;20.390;2022-12-18T12:36:04;49.40;;;20.52;;
62844;SDS011;48929;47.910;20.390;2022-12-18T12:38:34;46.47;;;19.60;;
62844;SDS011;48929;47.910;20.390;2022-12-18T12:41:08;48.38;;;21.23;;
62844;SDS011;48929;47.910;20.390;2022-12-18T12:43:59;51.17;;;21.67;;
62844;SDS011;48929;47.910;20.390;2022-12-18T12:46:30;47.78;;;20.63;;
62844;SDS011;48929;47.910;20.390;2022-12-18T12:49:01;53.35;;;20.33;;
62844;SDS011;48929;47.910;20.390;2022-12-18T12:51:39;50.22;;;22.02;;
62844;SDS011;48929;47.910;20.390;2022-12-18T12:54:28;50.95;;;19.95;;
62844;SDS011;48929;47.910;20.390;2022-12-18T12:57:05;50.45;;;21.17;;
62844;SDS011;48929;47.910;20.390;2022-12-18T13:00:24;53.17;;;21.88;;
62844;SDS011;48929;47.910;20.390;2022-12-18T13:02:59;50.20;;;21.40;;
62844;SDS011;48929;47.910;20.390;2022-12-18T13:05:34;53.35;;;20.67;;
62844;SDS011;48929;47.910;20.390;2022-12-18T13:08:10;49.10;;;20.48;;
62844;SDS011;48929;47.910;20.390;2022-12-18T13:10:46;50.22;;;20.63;;
62844;SDS011;48929;47.910;20.390;2022-12-18T13:13:18;51.35;;;20.90;;
62844;SDS011;48929;47.910;20.390;2022-12-18T13:16:08;44.03;;;18.63;;
62844;SDS011;48929;47.910;20.390;2022-12-18T13:18:49;58.35;;;23.08;;
62844;SDS011;48929;47.910;20.390;2022-12-18T13:21:20;53.95;;;21.45;;
62844;SDS011;48929;47.910;20.390;2022-12-18T13:23:50;52.28;;;21.65;;
62844;SDS011;48929;47.910;20.390;2022-12-18T13:26:36;55.33;;;21.45;;
62844;SDS011;48929;47.910;20.390;2022-12-18T13:29:04;53.65;;;21.63;;
62844;SDS011;48929;47.910;20.390;2022-12-18T13:34:24;54.90;;;21.73;;
62844;SDS011;48929;47.910;20.390;2022-12-18T13:36:57;58.30;;;21.63;;
62844;SDS011;48929;47.910;20.390;2022-12-18T13:39:47;49.28;;;20.27;;
62844;SDS011;48929;47.910;20.390;2022-12-18T13:42:35;60.58;;;22.88;;
62844;SDS011;48929;47.910;20.390;2022-12-18T13:45:44;59.05;;;21.67;;
62844;SDS011;48929;47.910;20.390;2022-12-18T13:48:17;53.25;;;20.50;;
62844;SDS011;48929;47.910;20.390;2022-12-18T13:50:49;52.63;;;21.30;;
62844;SDS011;48929;47.910;20.390;2022-12-18T13:53:35;59.22;;;22.20;;
62844;SDS011;48929;47.910;20.390;2022-12-18T13:56:15;55.15;;;20.58;;
62844;SDS011;48929;47.910;20.390;2022-12-18T14:01:32;57.27;;;20.23;;
62844;SDS011;48929;47.910;20.390;2022-12-18T14:04:11;54.30;;;22.25;;
62844;SDS011;48929;47.910;20.390;2022-12-18T14:06:42;60.17;;;20.55;;
62844;SDS011;48929;47.910;20.390;2022-12-18T14:09:15;61.15;;;22.02;;
62844;SDS011;48929;47.910;20.390;2022-12-18T14:11:50;57.60;;;22.35;;
62844;SDS011;48929;47.910;20.390;2022-12-18T14:14:42;61.25;;;21.65;;
62844;SDS011;48929;47.910;20.390;2022-12-18T14:17:13;54.55;;;21.48;;
62844;SDS011;48929;47.910;20.390;2022-12-18T14:19:44;61.10;;;21.83;;
62844;SDS011;48929;47.910;20.390;2022-12-18T14:22:16;53.13;;;21.20;;
62844;SDS011;48929;47.910;20.390;2022-12-18T14:24:46;60.65;;;22.08;;
62844;SDS011;48929;47.910;20.390;2022-12-18T14:27:20;55.78;;;20.70;;
62844;SDS011;48929;47.910;20.390;2022-12-18T14:29:58;66.50;;;22.13;;
62844;SDS011;48929;47.910;20.390;2022-12-18T14:32:27;65.82;;;22.25;;
62844;SDS011;48929;47.910;20.390;2022-12-18T14:34:57;65.85;;;22.67;;
62844;SDS011;48929;47.910;20.390;2022-12-18T14:37:35;72.45;;;23.35;;
62844;SDS011;48929;47.910;20.390;2022-12-18T14:40:04;61.95;;;21.52;;
62844;SDS011;48929;47.910;20.390;2022-12-18T14:42:37;74.18;;;22.92;;
62844;SDS011;48929;47.910;20.390;2022-12-18T14:45:32;70.28;;;23.67;;
62844;SDS011;48929;47.910;20.390;2022-12-18T14:48:09;72.35;;;22.35;;